createdAt,value
2022-12-03T00:01:36.790Z,50.20
2022-12-03T00:04:04.999Z,49.80
2022-12-03T00:06:34.732Z,49.80
2022-12-03T00:09:03.124Z,48.40
2022-12-03T00:11:30.820Z,52.90
2022-12-03T00:13:58.534Z,50.70
2022-12-03T00:16:26.555Z,50.00
2022-12-03T00:18:54.821Z,47.40
2022-12-03T00:21:24.650Z,49.40
2022-12-03T00:23:52.646Z,47.20
2022-12-03T00:26:20.472Z,46.00
2022-12-03T00:28:49.153Z,48.40
2022-12-03T00:31:21.063Z,46.00
2022-12-03T00:33:49.774Z,43.30
2022-12-03T00:36:17.740Z,43.80
2022-12-03T00:38:45.673Z,47.10
2022-12-03T00:41:13.891Z,45.00
2022-12-03T00:43:41.677Z,44.50
2022-12-03T00:46:09.624Z,47.70
2022-12-03T00:48:37.422Z,43.20
2022-12-03T00:51:05.221Z,43.10
2022-12-03T00:53:33.028Z,53.20
2022-12-03T00:56:01.878Z,40.70
2022-12-03T00:58:29.734Z,43.50
2022-12-03T01:00:57.368Z,45.10
2022-12-03T01:03:25.131Z,43.60
2022-12-03T01:05:54.225Z,38.90
2022-12-03T01:08:22.385Z,39.00
2022-12-03T01:10:50.158Z,40.70
2022-12-03T01:13:17.792Z,46.20
2022-12-03T01:15:45.585Z,46.00
2022-12-03T01:18:13.286Z,43.40
2022-12-03T01:20:41.013Z,45.60
2022-12-03T01:23:08.776Z,35.60
2022-12-03T01:25:36.468Z,44.00
2022-12-03T01:28:04.194Z,43.10
2022-12-03T01:30:51.915Z,35.80
2022-12-03T01:33:19.644Z,44.30
2022-12-03T01:35:47.340Z,41.80
2022-12-03T01:38:22.718Z,42.90
2022-12-03T01:40:50.608Z,43.70
2022-12-03T01:43:18.256Z,41.90
2022-12-03T01:45:46.032Z,39.90
2022-12-03T01:48:16.631Z,39.60
2022-12-03T01:50:44.581Z,39.50
2022-12-03T01:53:15.189Z,41.00
2022-12-03T01:55:48.889Z,39.50
2022-12-03T02:00:44.629Z,43.10
2022-12-03T02:03:15.248Z,35.10
2022-12-03T02:05:43.170Z,43.90
2022-12-03T02:08:46.539Z,41.60
2022-12-03T02:11:19.803Z,41.40
2022-12-03T02:13:49.281Z,43.80
2022-12-03T02:16:17.215Z,40.30
2022-12-03T02:18:45.234Z,43.60
2022-12-03T02:21:17.372Z,44.20
2022-12-03T02:23:45.108Z,45.30
2022-12-03T02:26:12.875Z,49.70
2022-12-03T02:28:40.688Z,49.40
2022-12-03T02:31:08.455Z,44.30
2022-12-03T02:33:36.266Z,40.60
2022-12-03T02:36:04.406Z,43.10
2022-12-03T02:38:32.929Z,37.10
2022-12-03T02:41:03.620Z,39.40
2022-12-03T02:43:31.439Z,47.10
2022-12-03T02:46:00.250Z,44.50
2022-12-03T02:48:46.309Z,47.60
2022-12-03T02:51:14.057Z,44.30
2022-12-03T02:53:44.568Z,42.90
2022-12-03T02:56:14.728Z,41.50
2022-12-03T02:58:43.659Z,43.60
2022-12-03T03:01:18.356Z,39.80
2022-12-03T03:03:50.710Z,36.50
2022-12-03T03:06:19.573Z,44.00
2022-12-03T03:08:48.077Z,43.50
2022-12-03T03:11:15.767Z,42.40
2022-12-03T03:13:43.761Z,43.20
2022-12-03T03:16:11.616Z,43.80
2022-12-03T03:18:39.919Z,41.20
2022-12-03T03:21:07.706Z,41.50
2022-12-03T03:23:35.448Z,43.30
2022-12-03T03:26:07.694Z,42.50
2022-12-03T03:28:38.121Z,36.30
2022-12-03T03:31:07.389Z,36.90
2022-12-03T03:33:35.844Z,39.80
2022-12-03T03:36:03.661Z,39.20
2022-12-03T03:38:31.989Z,40.20
2022-12-03T03:41:00.272Z,39.80
2022-12-03T03:43:29.855Z,40.40
2022-12-03T03:45:57.730Z,38.50
2022-12-03T03:48:25.625Z,36.10
2022-12-03T03:50:53.479Z,37.60
2022-12-03T03:53:21.944Z,37.90
2022-12-03T03:55:50.083Z,38.50
2022-12-03T03:58:17.968Z,43.20
2022-12-03T04:00:46.181Z,40.40
2022-12-03T04:03:14.176Z,35.80
2022-12-03T04:05:42.005Z,41.90
2022-12-03T04:08:09.839Z,45.90
2022-12-03T04:11:00.342Z,41.80
2022-12-03T04:13:28.014Z,43.80
2022-12-03T04:16:02.121Z,38.50
2022-12-03T04:18:45.300Z,41.00
2022-12-03T04:21:33.162Z,39.00
2022-12-03T04:24:00.939Z,47.00
2022-12-03T04:26:47.708Z,40.90
2022-12-03T04:29:19.419Z,43.90
2022-12-03T04:32:05.990Z,44.70
2022-12-03T04:34:53.037Z,44.50
2022-12-03T04:37:21.031Z,46.30
2022-12-03T04:39:48.781Z,52.10
2022-12-03T04:42:16.553Z,44.80
2022-12-03T04:44:44.293Z,50.70
2022-12-03T04:47:13.356Z,49.80
2022-12-03T04:49:42.201Z,45.90
2022-12-03T04:52:17.048Z,43.10
2022-12-03T04:54:44.791Z,45.80
2022-12-03T04:57:12.706Z,44.90
2022-12-03T04:59:40.585Z,45.20
2022-12-03T05:02:08.468Z,41.60
2022-12-03T05:04:36.391Z,45.00
2022-12-03T05:07:04.047Z,38.40
2022-12-03T05:09:33.475Z,49.00
2022-12-03T05:12:01.594Z,45.00
2022-12-03T05:14:29.429Z,40.30
2022-12-03T05:16:57.258Z,40.60
2022-12-03T05:19:45.771Z,39.60
2022-12-03T05:22:13.509Z,44.30
2022-12-03T05:24:47.937Z,42.70
2022-12-03T05:27:20.197Z,46.40
2022-12-03T05:29:51.177Z,45.60
2022-12-03T05:32:19.454Z,49.90
2022-12-03T05:34:47.217Z,42.90
2022-12-03T05:37:15.105Z,49.50
2022-12-03T05:39:42.888Z,64.20
2022-12-03T05:42:29.677Z,50.80
2022-12-03T05:44:57.462Z,49.90
2022-12-03T05:47:25.142Z,46.20
2022-12-03T05:49:53.095Z,41.60
2022-12-03T05:52:20.791Z,47.80
2022-12-03T05:54:48.650Z,42.90
2022-12-03T05:57:16.247Z,56.50
2022-12-03T05:59:50.640Z,50.70
2022-12-03T06:02:22.292Z,49.00
2022-12-03T06:04:50.568Z,45.60
2022-12-03T06:07:18.621Z,53.20
2022-12-03T06:09:46.347Z,45.80
2022-12-03T06:12:14.129Z,47.90
2022-12-03T06:14:41.839Z,48.60
2022-12-03T06:17:09.579Z,53.60
2022-12-03T06:19:37.578Z,53.50
2022-12-03T06:22:05.328Z,57.60
2022-12-03T06:24:33.104Z,46.90
2022-12-03T06:27:00.774Z,50.20
2022-12-03T06:29:28.523Z,51.20
2022-12-03T06:31:56.263Z,53.50
2022-12-03T06:34:24.333Z,54.80
2022-12-03T06:36:52.215Z,59.60
2022-12-03T06:39:22.640Z,54.30
2022-12-03T06:41:50.297Z,62.60
2022-12-03T06:44:25.009Z,49.80
2022-12-03T06:46:53.128Z,51.20
2022-12-03T06:49:21.181Z,50.50
2022-12-03T06:51:48.931Z,53.00
2022-12-03T06:54:16.728Z,48.00
2022-12-03T06:56:45.988Z,46.30
2022-12-03T06:59:18.237Z,47.10
2022-12-03T07:01:46.060Z,50.40
2022-12-03T07:04:13.928Z,59.10
2022-12-03T07:06:41.992Z,50.70
2022-12-03T07:09:10.065Z,61.20
2022-12-03T07:11:41.270Z,49.30
2022-12-03T07:14:11.605Z,46.00
2022-12-03T07:16:40.029Z,51.50
2022-12-03T07:19:08.003Z,50.40
2022-12-03T07:21:36.367Z,59.30
2022-12-03T07:24:05.942Z,55.20
2022-12-03T07:26:34.147Z,67.10
2022-12-03T07:29:02.239Z,53.70
2022-12-03T07:31:30.532Z,52.10
2022-12-03T07:33:58.430Z,54.20
2022-12-03T07:36:26.282Z,54.90
2022-12-03T07:39:01.046Z,52.30
2022-12-03T07:41:28.875Z,54.80
2022-12-03T07:43:57.317Z,54.00
2022-12-03T07:46:25.173Z,61.60
2022-12-03T07:48:53.094Z,117.90
2022-12-03T07:51:21.371Z,83.30
2022-12-03T07:53:51.761Z,64.70
2022-12-03T07:56:19.746Z,77.00
2022-12-03T07:58:47.854Z,72.70
2022-12-03T08:01:15.766Z,62.80
2022-12-03T08:03:43.954Z,77.70
2022-12-03T08:06:11.723Z,67.10
2022-12-03T08:08:39.538Z,76.10
2022-12-03T08:11:10.623Z,54.60
2022-12-03T08:13:38.727Z,43.30
2022-12-03T08:16:18.106Z,45.20
2022-12-03T08:18:47.508Z,43.00
2022-12-03T08:21:16.678Z,57.40
2022-12-03T08:23:50.903Z,54.10
2022-12-03T08:26:18.765Z,44.20
2022-12-03T08:28:46.833Z,46.10
2022-12-03T08:31:21.241Z,50.50
2022-12-03T08:33:59.771Z,62.20
2022-12-03T08:36:32.924Z,62.30
2022-12-03T08:39:02.143Z,52.20
2022-12-03T08:41:49.055Z,51.20
2022-12-03T08:44:27.772Z,43.80
2022-12-03T08:47:01.665Z,38.10
2022-12-03T08:49:29.430Z,54.80
2022-12-03T08:51:59.426Z,36.50
2022-12-03T08:54:27.682Z,48.60
2022-12-03T08:56:55.569Z,41.30
2022-12-03T08:59:30.783Z,44.00
2022-12-03T09:01:59.604Z,52.70
2022-12-03T09:04:39.249Z,136.00
2022-12-03T09:07:07.722Z,71.30
2022-12-03T09:09:36.258Z,58.30
2022-12-03T09:12:04.540Z,47.30
2022-12-03T09:14:32.443Z,49.90
2022-12-03T09:17:00.669Z,51.10
2022-12-03T09:19:31.920Z,64.80
2022-12-03T09:22:00.489Z,53.40
2022-12-03T09:24:29.685Z,49.90
2022-12-03T09:27:05.332Z,54.20
2022-12-03T09:29:43.105Z,58.40
2022-12-03T09:32:19.130Z,83.10
2022-12-03T09:34:54.724Z,63.20
2022-12-03T09:37:26.814Z,77.90
2022-12-03T09:39:55.398Z,68.80
2022-12-03T09:42:26.540Z,59.30
2022-12-03T09:44:56.222Z,56.80
2022-12-03T09:47:25.276Z,58.20
2022-12-03T09:49:53.531Z,63.50
2022-12-03T09:52:29.459Z,59.00
2022-12-03T09:55:15.582Z,60.10
2022-12-03T09:57:43.603Z,76.80
2022-12-03T10:00:36.562Z,51.80
2022-12-03T10:03:07.705Z,58.90
2022-12-03T10:05:35.457Z,57.80
2022-12-03T10:08:15.883Z,53.80
2022-12-03T10:10:46.227Z,43.40
2022-12-03T10:13:25.454Z,46.80
2022-12-03T10:15:54.954Z,177.90
2022-12-03T10:18:26.406Z,63.20
2022-12-03T10:21:01.614Z,56.30
2022-12-03T10:23:30.593Z,60.00
2022-12-03T10:26:00.263Z,409.30
2022-12-03T10:28:36.473Z,212.40
2022-12-03T10:31:10.664Z,222.50
2022-12-03T10:33:42.882Z,178.80
2022-12-03T10:36:17.263Z,381.90
2022-12-03T10:38:45.374Z,175.90
2022-12-03T10:41:27.376Z,85.00
2022-12-03T10:44:11.199Z,173.00
2022-12-03T10:46:42.841Z,122.80
2022-12-03T10:49:16.715Z,146.80
2022-12-03T10:51:48.864Z,217.90
2022-12-03T10:54:19.627Z,194.30
2022-12-03T10:56:48.724Z,157.80
2022-12-03T10:59:18.850Z,100.50
2022-12-03T11:01:46.923Z,232.60
2022-12-03T11:04:34.297Z,171.80
2022-12-03T11:07:02.895Z,131.20
2022-12-03T11:09:33.344Z,226.90
2022-12-03T11:12:06.349Z,345.40
2022-12-03T11:15:05.329Z,145.40
2022-12-03T11:17:46.982Z,191.30
2022-12-03T11:20:22.950Z,154.70
2022-12-03T11:22:50.958Z,145.70
2022-12-03T11:25:25.458Z,161.40
2022-12-03T11:28:15.079Z,211.60
2022-12-03T11:30:49.182Z,148.70
2022-12-03T11:33:23.845Z,121.30
2022-12-03T11:36:04.473Z,89.00
2022-12-03T11:38:38.522Z,48.30
2022-12-03T11:43:52.970Z,61.40
2022-12-03T11:46:42.021Z,63.30
2022-12-03T11:49:24.831Z,58.70
2022-12-03T11:51:52.599Z,46.40
2022-12-03T11:54:22.126Z,56.70
2022-12-03T11:56:51.881Z,55.50
2022-12-03T11:59:20.927Z,44.60
2022-12-03T12:01:49.286Z,57.10
2022-12-03T12:04:28.000Z,97.30
2022-12-03T12:06:56.221Z,64.80
2022-12-03T12:09:43.561Z,77.00
2022-12-03T12:12:41.070Z,71.10
2022-12-03T12:15:29.131Z,58.80
2022-12-03T12:17:56.886Z,66.10
2022-12-03T12:20:27.385Z,81.30
2022-12-03T12:22:55.578Z,90.10
2022-12-03T12:25:31.646Z,79.20
2022-12-03T12:27:59.565Z,74.40
2022-12-03T12:30:27.635Z,55.80
2022-12-03T12:33:12.329Z,56.80
2022-12-03T12:35:41.254Z,93.30
2022-12-03T12:38:10.921Z,63.20
2022-12-03T12:40:39.741Z,134.00
2022-12-03T12:43:15.247Z,56.30
2022-12-03T12:45:45.835Z,46.90
2022-12-03T12:48:21.026Z,113.40
2022-12-03T12:50:51.891Z,88.50
2022-12-03T12:53:19.650Z,69.90
2022-12-03T12:55:48.614Z,47.00
2022-12-03T12:58:17.948Z,81.40
2022-12-03T13:00:50.943Z,53.40
2022-12-03T13:03:19.572Z,68.10
2022-12-03T13:05:48.585Z,69.90
2022-12-03T13:08:35.521Z,89.20
2022-12-03T13:11:03.526Z,52.90
2022-12-03T13:13:41.623Z,57.90
2022-12-03T13:16:16.352Z,56.90
2022-12-03T13:18:48.617Z,43.20
2022-12-03T13:21:22.187Z,61.60
2022-12-03T13:23:54.275Z,58.70
2022-12-03T13:26:34.529Z,64.20
2022-12-03T13:29:14.724Z,65.60
2022-12-03T13:31:50.463Z,57.30
2022-12-03T13:34:22.591Z,54.50
2022-12-03T13:36:56.986Z,50.30
2022-12-03T13:39:36.877Z,63.60
2022-12-03T13:42:45.651Z,73.10
2022-12-03T13:45:16.092Z,57.70
2022-12-03T13:47:48.264Z,90.80
2022-12-03T13:50:21.284Z,84.60
2022-12-03T13:52:49.160Z,66.00
2022-12-03T13:55:22.751Z,58.60
2022-12-03T13:57:50.745Z,95.30
2022-12-03T14:00:18.834Z,64.70
2022-12-03T14:02:46.826Z,72.00
2022-12-03T14:05:14.838Z,65.40
2022-12-03T14:07:42.701Z,52.60
2022-12-03T14:10:11.927Z,58.80
2022-12-03T14:12:39.683Z,67.80
2022-12-03T14:15:08.773Z,78.30
2022-12-03T14:17:36.698Z,94.80
2022-12-03T14:20:05.200Z,53.30
2022-12-03T14:22:33.030Z,61.30
2022-12-03T14:25:00.718Z,53.50
2022-12-03T14:27:30.543Z,57.40
2022-12-03T14:29:58.404Z,69.60
2022-12-03T14:32:26.190Z,71.10
2022-12-03T14:34:54.051Z,87.30
2022-12-03T14:37:21.786Z,91.80
2022-12-03T14:39:49.761Z,91.80
2022-12-03T14:42:18.345Z,60.10
2022-12-03T14:44:47.304Z,59.50
2022-12-03T14:47:16.344Z,53.30
2022-12-03T14:49:44.595Z,52.90
2022-12-03T14:52:13.015Z,55.70
2022-12-03T14:54:42.805Z,54.60
2022-12-03T14:57:12.833Z,72.70
2022-12-03T14:59:44.282Z,68.10
2022-12-03T15:02:12.907Z,60.00
2022-12-03T15:04:41.335Z,57.10
2022-12-03T15:07:09.586Z,65.40
2022-12-03T15:09:37.786Z,53.40
2022-12-03T15:12:06.348Z,67.90
2022-12-03T15:14:34.244Z,63.90
2022-12-03T15:17:02.174Z,62.10
2022-12-03T15:19:30.148Z,78.30
2022-12-03T15:22:09.252Z,83.70
2022-12-03T15:24:37.508Z,83.50
2022-12-03T15:27:05.271Z,64.10
2022-12-03T15:29:33.246Z,62.80
2022-12-03T15:32:03.164Z,57.60
2022-12-03T15:34:31.335Z,60.80
2022-12-03T15:36:59.868Z,57.50
2022-12-03T15:39:28.236Z,54.40
2022-12-03T15:41:56.041Z,86.40
2022-12-03T15:44:27.846Z,65.80
2022-12-03T15:46:55.687Z,50.90
2022-12-03T15:49:23.615Z,81.70
2022-12-03T15:51:52.175Z,55.30
2022-12-03T15:54:21.613Z,67.90
2022-12-03T15:56:57.641Z,67.50
2022-12-03T15:59:28.594Z,63.70
2022-12-03T16:02:00.887Z,69.60
2022-12-03T16:04:30.269Z,92.00
2022-12-03T16:06:59.617Z,86.10
2022-12-03T16:09:30.317Z,68.70
2022-12-03T16:11:59.802Z,61.90
2022-12-03T16:14:34.886Z,82.10
2022-12-03T16:17:03.918Z,82.00
2022-12-03T16:19:36.053Z,101.50
2022-12-03T16:22:06.209Z,88.20
2022-12-03T16:24:34.358Z,76.30
2022-12-03T16:27:02.569Z,100.70
2022-12-03T16:29:30.811Z,68.30
2022-12-03T16:31:58.661Z,74.10
2022-12-03T16:34:33.755Z,67.10
2022-12-03T16:37:01.658Z,83.40
2022-12-03T16:39:29.826Z,59.00
2022-12-03T16:41:58.182Z,52.80
2022-12-03T16:44:43.788Z,72.60
2022-12-03T16:47:16.144Z,54.50
2022-12-03T16:49:44.411Z,68.10
2022-12-03T16:52:12.816Z,76.60
2022-12-03T16:54:41.977Z,69.20
2022-12-03T16:57:11.601Z,84.40
2022-12-03T16:59:41.662Z,65.70
2022-12-03T17:02:13.130Z,62.80
2022-12-03T17:04:41.156Z,99.60
2022-12-03T17:07:08.907Z,87.20
2022-12-03T17:09:36.706Z,77.40
2022-12-03T17:12:04.954Z,84.40
2022-12-03T17:14:33.699Z,88.00
2022-12-03T17:17:01.594Z,109.40
2022-12-03T17:19:29.423Z,87.30
2022-12-03T17:22:00.158Z,93.20
2022-12-03T17:24:29.198Z,105.40
2022-12-03T17:26:57.878Z,88.10
2022-12-03T17:29:25.896Z,117.90
2022-12-03T17:31:53.721Z,109.10
2022-12-03T17:34:21.532Z,87.20
2022-12-03T17:36:50.616Z,95.20
2022-12-03T17:39:19.879Z,95.00
2022-12-03T17:41:47.563Z,68.80
2022-12-03T17:44:20.745Z,88.70
2022-12-03T17:46:49.340Z,86.10
2022-12-03T17:49:17.307Z,89.30
2022-12-03T17:51:45.760Z,75.80
2022-12-03T17:54:14.286Z,99.20
2022-12-03T17:56:44.018Z,88.10
2022-12-03T17:59:14.268Z,88.80
2022-12-03T18:01:43.281Z,83.50
2022-12-03T18:04:11.600Z,82.30
2022-12-03T18:06:40.075Z,82.90
2022-12-03T18:09:07.861Z,69.70
2022-12-03T18:11:37.426Z,84.40
2022-12-03T18:14:07.224Z,80.40
2022-12-03T18:16:35.047Z,76.00
2022-12-03T18:19:06.271Z,96.90
2022-12-03T18:21:34.973Z,94.90
2022-12-03T18:24:09.766Z,149.40
2022-12-03T18:26:38.212Z,118.20
2022-12-03T18:29:08.724Z,134.00
2022-12-03T18:31:36.573Z,184.20
2022-12-03T18:34:05.676Z,133.70
2022-12-03T18:36:36.154Z,235.40
2022-12-03T18:39:06.141Z,235.40
2022-12-03T18:41:53.946Z,151.20
2022-12-03T18:44:23.667Z,142.60
2022-12-03T18:46:54.456Z,129.20
2022-12-03T18:49:23.270Z,105.90
2022-12-03T18:51:56.032Z,137.10
2022-12-03T18:54:26.923Z,146.00
2022-12-03T18:56:54.991Z,127.70
2022-12-03T18:59:24.702Z,121.10
2022-12-03T19:01:52.813Z,129.10
2022-12-03T19:04:20.867Z,92.90
2022-12-03T19:06:49.191Z,92.40
2022-12-03T19:09:17.051Z,98.50
2022-12-03T19:11:44.983Z,89.00
2022-12-03T19:14:13.435Z,71.40
2022-12-03T19:16:42.899Z,77.10
2022-12-03T19:19:11.265Z,73.40
2022-12-03T19:21:40.486Z,124.50
2022-12-03T19:24:25.307Z,67.20
2022-12-03T19:26:55.646Z,96.50
2022-12-03T19:29:24.137Z,93.60
2022-12-03T19:31:52.264Z,74.80
2022-12-03T19:34:20.435Z,69.40
2022-12-03T19:36:48.560Z,66.40
2022-12-03T19:39:18.448Z,81.60
2022-12-03T19:41:52.387Z,66.10
2022-12-03T19:44:20.106Z,56.70
2022-12-03T19:46:51.238Z,64.50
2022-12-03T19:49:21.530Z,61.70
2022-12-03T19:51:49.885Z,72.60
2022-12-03T19:54:18.005Z,304.30
2022-12-03T19:56:46.410Z,281.20
2022-12-03T19:59:14.560Z,87.70
2022-12-03T20:01:43.428Z,117.30
2022-12-03T20:04:12.700Z,122.20
2022-12-03T20:06:40.684Z,80.20
2022-12-03T20:09:11.477Z,117.10
2022-12-03T20:11:41.781Z,166.20
2022-12-03T20:14:11.278Z,216.00
2022-12-03T20:16:39.773Z,236.70
2022-12-03T20:19:15.072Z,210.20
2022-12-03T20:21:49.020Z,137.60
2022-12-03T20:26:51.041Z,126.60
2022-12-03T20:29:29.319Z,82.20
2022-12-03T20:31:57.293Z,86.60
2022-12-03T20:34:25.177Z,145.70
2022-12-03T20:36:53.053Z,90.60
2022-12-03T20:39:21.732Z,76.60
2022-12-03T20:41:50.516Z,65.60
2022-12-03T20:44:19.937Z,72.90
2022-12-03T20:46:48.346Z,74.70
2022-12-03T20:49:16.375Z,61.90
2022-12-03T20:51:45.943Z,66.00
2022-12-03T20:54:15.618Z,65.00
2022-12-03T20:57:05.051Z,66.80
2022-12-03T20:59:33.001Z,86.10
2022-12-03T21:02:01.337Z,84.20
2022-12-03T21:04:29.261Z,116.90
2022-12-03T21:06:57.764Z,92.80
2022-12-03T21:09:27.494Z,76.00
2022-12-03T21:11:56.152Z,75.70
2022-12-03T21:14:24.044Z,101.60
2022-12-03T21:17:08.003Z,85.10
2022-12-03T21:19:37.917Z,104.80
2022-12-03T21:22:06.607Z,90.70
2022-12-03T21:24:34.707Z,84.60
2022-12-03T21:27:02.743Z,73.80
2022-12-03T21:29:38.021Z,67.40
2022-12-03T21:32:06.762Z,70.50
2022-12-03T21:34:36.559Z,63.10
2022-12-03T21:37:04.629Z,67.50
2022-12-03T21:39:32.818Z,71.10
2022-12-03T21:42:19.108Z,67.60
2022-12-03T21:44:49.091Z,75.50
2022-12-03T21:47:17.749Z,74.20
2022-12-03T21:49:47.519Z,73.10
2022-12-03T21:52:15.629Z,70.30
2022-12-03T21:54:44.072Z,73.90
2022-12-03T21:57:12.930Z,74.50
2022-12-03T21:59:42.443Z,73.50
2022-12-03T22:02:14.124Z,70.10
2022-12-03T22:04:42.304Z,72.80
2022-12-03T22:07:10.255Z,72.90
2022-12-03T22:09:39.050Z,66.40
2022-12-03T22:12:08.665Z,75.20
2022-12-03T22:14:36.446Z,65.90
2022-12-03T22:17:15.303Z,76.40
2022-12-03T22:19:44.288Z,85.20
2022-12-03T22:22:12.669Z,115.40
2022-12-03T22:24:41.671Z,72.20
2022-12-03T22:27:09.425Z,68.70
2022-12-03T22:29:38.382Z,61.90
2022-12-03T22:32:06.523Z,74.90
2022-12-03T22:34:35.132Z,75.80
2022-12-03T22:37:05.956Z,72.50
2022-12-03T22:39:34.132Z,83.50
2022-12-03T22:42:02.178Z,65.60
2022-12-03T22:44:32.019Z,69.20
2022-12-03T22:47:00.242Z,67.60
2022-12-03T22:49:28.932Z,68.30
2022-12-03T22:51:59.754Z,80.70
2022-12-03T22:54:28.123Z,73.30
2022-12-03T22:56:57.984Z,78.90
2022-12-03T22:59:26.237Z,78.10
2022-12-03T23:01:54.787Z,70.20
2022-12-03T23:04:23.486Z,89.30
2022-12-03T23:06:51.885Z,78.90
2022-12-03T23:09:22.933Z,62.90
2022-12-03T23:11:59.239Z,77.50
2022-12-03T23:14:27.260Z,65.30
2022-12-03T23:16:56.767Z,72.80
2022-12-03T23:19:27.280Z,76.40
2022-12-03T23:21:56.353Z,73.50
2022-12-03T23:24:26.588Z,65.80
2022-12-03T23:26:58.717Z,67.40
2022-12-03T23:29:30.199Z,69.40
2022-12-03T23:31:59.678Z,62.30
2022-12-03T23:34:28.409Z,68.40
2022-12-03T23:37:16.479Z,66.60
2022-12-03T23:39:50.106Z,65.60
2022-12-03T23:42:17.885Z,69.70
2022-12-03T23:44:45.674Z,82.60
2022-12-03T23:47:14.108Z,81.10
2022-12-03T23:49:41.825Z,71.80
2022-12-03T23:52:09.442Z,68.20
2022-12-03T23:54:37.770Z,67.40
2022-12-03T23:57:05.577Z,68.20
2022-12-03T23:59:33.214Z,65.40
